createdAt,value
2017-10-21T00:00:15.063Z,6.23
2017-10-21T00:02:45.021Z,6.00
2017-10-21T00:05:14.906Z,6.57
2017-10-21T00:07:44.883Z,6.43
2017-10-21T00:10:14.767Z,6.53
2017-10-21T00:12:44.633Z,6.30
2017-10-21T00:15:14.537Z,6.10
2017-10-21T00:17:44.399Z,7.23
2017-10-21T00:20:14.319Z,6.53
2017-10-21T00:22:44.204Z,5.50
2017-10-21T00:25:14.077Z,8.63
2017-10-21T00:27:43.986Z,6.43
2017-10-21T00:30:13.835Z,5.80
2017-10-21T00:32:43.712Z,6.67
2017-10-21T00:35:13.577Z,8.00
2017-10-21T00:37:43.486Z,8.63
2017-10-21T00:40:13.357Z,6.40
2017-10-21T00:42:43.312Z,6.50
2017-10-21T00:45:13.179Z,6.30
2017-10-21T00:47:43.049Z,5.90
2017-10-21T00:50:12.931Z,6.10
2017-10-21T00:52:42.824Z,6.03
2017-10-21T00:55:12.711Z,6.27
2017-10-21T00:57:42.568Z,5.83
2017-10-21T01:00:12.448Z,5.77
2017-10-21T01:02:42.302Z,5.80
2017-10-21T01:05:12.295Z,5.33
2017-10-21T01:07:42.198Z,6.17
2017-10-21T01:10:12.762Z,6.13
2017-10-21T01:12:42.630Z,6.60
2017-10-21T01:15:12.489Z,5.07
2017-10-21T01:17:42.360Z,5.37
2017-10-21T01:20:12.210Z,5.70
2017-10-21T01:22:42.100Z,6.47
2017-10-21T01:25:11.942Z,8.60
2017-10-21T01:27:41.794Z,5.70
2017-10-21T01:30:12.508Z,6.90
2017-10-21T01:32:42.365Z,6.73
2017-10-21T01:35:12.230Z,5.07
2017-10-21T01:37:42.064Z,6.20
2017-10-21T01:40:12.023Z,6.13
2017-10-21T01:42:41.865Z,5.90
2017-10-21T01:45:11.719Z,6.07
2017-10-21T01:47:41.551Z,6.40
2017-10-21T01:50:11.397Z,6.40
2017-10-21T01:52:41.262Z,6.03
2017-10-21T01:55:11.161Z,6.03
2017-10-21T01:57:41.039Z,6.13
2017-10-21T02:00:10.898Z,5.40
2017-10-21T02:02:40.764Z,8.13
2017-10-21T02:05:10.631Z,5.07
2017-10-21T02:07:40.485Z,5.50
2017-10-21T02:10:10.445Z,7.53
2017-10-21T02:12:40.295Z,5.53
2017-10-21T02:15:10.195Z,5.43
2017-10-21T02:17:40.042Z,5.00
2017-10-21T02:20:09.933Z,5.10
2017-10-21T02:22:40.658Z,4.70
2017-10-21T02:25:10.597Z,5.23
2017-10-21T02:27:40.492Z,5.70
2017-10-21T02:30:10.361Z,5.23
2017-10-21T02:32:40.283Z,5.17
2017-10-21T02:35:10.133Z,5.27
2017-10-21T02:37:39.988Z,5.43
2017-10-21T02:40:09.863Z,4.53
2017-10-21T02:42:39.727Z,6.23
2017-10-21T02:45:09.608Z,6.67
2017-10-21T02:47:39.469Z,5.03
2017-10-21T02:50:09.359Z,4.30
2017-10-21T02:52:39.229Z,4.80
2017-10-21T02:55:09.118Z,4.60
2017-10-21T02:57:38.992Z,4.70
2017-10-21T03:00:08.841Z,4.53
2017-10-21T03:02:38.996Z,5.30
2017-10-21T03:05:08.838Z,8.17
2017-10-21T03:07:38.721Z,4.80
2017-10-21T03:10:08.582Z,3.97
2017-10-21T03:12:38.556Z,4.50
2017-10-21T03:15:08.411Z,4.53
2017-10-21T03:17:38.316Z,3.80
2017-10-21T03:20:08.237Z,4.53
2017-10-21T03:22:38.113Z,5.27
2017-10-21T03:25:07.966Z,4.23
2017-10-21T03:27:37.827Z,5.57
2017-10-21T03:30:07.694Z,4.77
2017-10-21T03:32:37.553Z,4.77
2017-10-21T03:35:07.441Z,4.73
2017-10-21T03:37:37.293Z,4.90
2017-10-21T03:40:07.145Z,5.80
2017-10-21T03:42:37.006Z,4.97
2017-10-21T03:45:06.907Z,7.03
2017-10-21T03:47:36.803Z,5.90
2017-10-21T03:50:06.666Z,6.50
2017-10-21T03:52:36.562Z,4.40
2017-10-21T03:55:06.435Z,5.30
2017-10-21T03:57:36.357Z,4.90
2017-10-21T04:00:06.233Z,4.90
2017-10-21T04:02:36.126Z,5.13
2017-10-21T04:05:05.980Z,5.30
2017-10-21T04:07:36.080Z,6.00
2017-10-21T04:10:05.940Z,4.17
2017-10-21T04:12:35.776Z,5.00
2017-10-21T04:15:05.671Z,5.83
2017-10-21T04:17:35.671Z,5.23
2017-10-21T04:20:05.566Z,5.20
2017-10-21T04:22:35.421Z,4.53
2017-10-21T04:25:05.306Z,3.87
2017-10-21T04:27:35.281Z,4.70
2017-10-21T04:30:05.280Z,6.90
2017-10-21T04:32:35.140Z,5.00
2017-10-21T04:35:05.026Z,4.23
2017-10-21T04:37:34.893Z,4.43
2017-10-21T04:40:04.762Z,5.23
2017-10-21T04:42:34.638Z,4.13
2017-10-21T04:45:04.503Z,4.80
2017-10-21T04:47:34.410Z,4.90
2017-10-21T04:50:04.295Z,4.67
2017-10-21T04:52:34.185Z,5.30
2017-10-21T04:55:04.056Z,4.90
2017-10-21T04:57:33.937Z,4.93
2017-10-21T05:00:03.829Z,3.73
2017-10-21T05:02:33.733Z,4.50
2017-10-21T05:05:03.611Z,5.27
2017-10-21T05:07:33.469Z,5.00
2017-10-21T05:10:03.362Z,2.97
2017-10-21T05:12:33.250Z,4.33
2017-10-21T05:15:03.107Z,3.80
2017-10-21T05:17:32.960Z,4.40
2017-10-21T05:20:02.946Z,4.27
2017-10-21T05:22:32.833Z,5.23
2017-10-21T05:25:02.682Z,4.73
2017-10-21T05:27:32.609Z,4.40
2017-10-21T05:30:02.464Z,5.07
2017-10-21T05:32:32.374Z,5.97
2017-10-21T05:35:02.257Z,4.07
2017-10-21T05:37:32.125Z,4.50
2017-10-21T05:40:02.000Z,3.67
2017-10-21T05:42:31.867Z,3.80
2017-10-21T05:45:01.734Z,4.00
2017-10-21T05:47:31.582Z,3.10
2017-10-21T05:50:01.474Z,4.17
2017-10-21T05:52:31.361Z,4.33
2017-10-21T05:55:01.253Z,4.50
2017-10-21T05:57:31.150Z,4.60
2017-10-21T06:00:01.179Z,4.57
2017-10-21T06:02:31.073Z,4.77
2017-10-21T06:05:00.947Z,4.50
2017-10-21T06:07:30.849Z,3.33
2017-10-21T06:10:00.722Z,4.10
2017-10-21T06:12:30.643Z,4.50
2017-10-21T06:15:00.514Z,4.30
2017-10-21T06:17:36.513Z,3.30
2017-10-21T06:20:06.390Z,3.70
2017-10-21T06:22:36.269Z,3.80
2017-10-21T06:25:06.126Z,3.93
2017-10-21T06:27:36.002Z,4.30
2017-10-21T06:30:05.885Z,4.93
2017-10-21T06:32:35.755Z,4.13
2017-10-21T06:35:05.758Z,3.37
2017-10-21T06:37:35.646Z,4.73
2017-10-21T06:40:05.560Z,4.47
2017-10-21T06:42:35.544Z,3.60
2017-10-21T06:45:05.443Z,3.83
2017-10-21T06:47:35.314Z,5.90
2017-10-21T06:50:05.240Z,3.97
2017-10-21T06:52:35.083Z,4.00
2017-10-21T06:55:04.998Z,4.63
2017-10-21T06:57:34.867Z,4.50
2017-10-21T07:00:04.738Z,4.37
2017-10-21T07:02:34.654Z,4.30
2017-10-21T07:05:04.496Z,4.10
2017-10-21T07:07:34.373Z,4.20
2017-10-21T07:10:04.238Z,5.27
2017-10-21T07:12:34.117Z,5.00
2017-10-21T07:15:03.975Z,6.63
2017-10-21T07:17:33.842Z,4.70
2017-10-21T07:20:03.741Z,4.77
2017-10-21T07:22:34.594Z,5.00
2017-10-21T07:25:04.507Z,5.03
2017-10-21T07:27:34.373Z,4.70
2017-10-21T07:30:04.256Z,5.00
2017-10-21T07:32:34.141Z,5.23
2017-10-21T07:35:04.058Z,5.13
2017-10-21T07:37:34.046Z,5.00
2017-10-21T07:40:03.901Z,4.67
2017-10-21T07:42:33.774Z,5.23
2017-10-21T07:45:03.652Z,6.17
2017-10-21T07:47:33.553Z,5.40
2017-10-21T07:50:03.430Z,3.83
2017-10-21T07:52:33.343Z,5.00
2017-10-21T07:55:03.238Z,4.60
2017-10-21T07:57:33.152Z,4.27
2017-10-21T08:00:03.078Z,4.30
2017-10-21T08:02:32.985Z,4.23
2017-10-21T08:05:02.851Z,5.40
2017-10-21T08:07:32.747Z,5.20
2017-10-21T08:10:02.628Z,5.03
2017-10-21T08:12:32.534Z,5.63
2017-10-21T08:15:02.420Z,4.20
2017-10-21T08:17:32.318Z,4.30
2017-10-21T08:20:02.501Z,5.13
2017-10-21T08:22:32.382Z,4.37
2017-10-21T08:25:02.285Z,4.00
2017-10-21T08:27:32.208Z,4.60
2017-10-21T08:30:02.088Z,4.40
2017-10-21T08:32:31.960Z,4.80
2017-10-21T08:35:01.879Z,5.10
2017-10-21T08:37:31.909Z,3.80
2017-10-21T08:40:01.802Z,5.00
2017-10-21T08:42:31.651Z,4.70
2017-10-21T08:45:01.551Z,4.57
2017-10-21T08:47:31.447Z,4.73
2017-10-21T08:50:01.326Z,4.63
2017-10-21T08:52:31.235Z,4.57
2017-10-21T08:55:01.091Z,3.97
2017-10-21T08:57:30.978Z,5.13
2017-10-21T09:00:00.860Z,4.40
2017-10-21T09:02:30.733Z,5.40
2017-10-21T09:05:00.646Z,3.60
2017-10-21T09:07:30.524Z,4.30
2017-10-21T09:10:00.431Z,3.20
2017-10-21T09:12:30.291Z,4.40
2017-10-21T09:15:00.203Z,5.20
2017-10-21T09:17:30.189Z,4.53
2017-10-21T09:20:00.066Z,3.30
2017-10-21T09:22:29.948Z,3.80
2017-10-21T09:24:59.825Z,4.17
2017-10-21T09:27:29.730Z,3.97
2017-10-21T09:29:59.631Z,3.73
2017-10-21T09:32:29.550Z,4.03
2017-10-21T09:34:59.431Z,4.47
2017-10-21T09:37:29.321Z,3.90
2017-10-21T09:39:59.191Z,4.17
2017-10-21T09:42:29.110Z,4.30
2017-10-21T09:44:58.981Z,4.17
2017-10-21T09:47:28.861Z,4.10
2017-10-21T09:49:58.746Z,4.47
2017-10-21T09:52:29.169Z,4.43
2017-10-21T09:54:59.060Z,3.70
2017-10-21T09:57:28.928Z,4.50
2017-10-21T09:59:58.832Z,5.07
2017-10-21T10:02:28.691Z,4.47
2017-10-21T10:04:58.586Z,4.07
2017-10-21T10:07:28.468Z,3.60
2017-10-21T10:09:58.936Z,4.03
2017-10-21T10:12:28.887Z,3.53
2017-10-21T10:14:58.833Z,4.43
2017-10-21T10:17:28.707Z,4.13
2017-10-21T10:19:58.582Z,3.70
2017-10-21T10:22:28.494Z,3.43
2017-10-21T10:24:58.425Z,3.00
2017-10-21T10:27:28.287Z,4.13
2017-10-21T10:29:58.195Z,3.87
2017-10-21T10:32:28.260Z,3.70
2017-10-21T10:34:58.162Z,4.27
2017-10-21T10:37:28.010Z,4.10
2017-10-21T10:39:58.001Z,5.73
2017-10-21T10:42:27.861Z,3.73
2017-10-21T10:44:57.722Z,3.60
2017-10-21T10:47:27.610Z,3.63
2017-10-21T10:49:57.487Z,4.03
2017-10-21T10:52:27.352Z,3.63
2017-10-21T10:54:57.222Z,3.70
2017-10-21T10:57:27.133Z,4.30
2017-10-21T10:59:57.242Z,4.57
2017-10-21T11:02:27.082Z,4.37
2017-10-21T11:04:57.056Z,4.00
2017-10-21T11:07:26.934Z,2.97
2017-10-21T11:09:56.863Z,3.43
2017-10-21T11:12:26.741Z,4.57
2017-10-21T11:14:56.754Z,4.27
2017-10-21T11:17:26.635Z,3.23
2017-10-21T11:19:56.546Z,3.43
2017-10-21T11:22:26.503Z,3.77
2017-10-21T11:24:56.408Z,2.93
2017-10-21T11:27:26.279Z,3.10
2017-10-21T11:29:56.250Z,3.20
2017-10-21T11:32:26.184Z,3.63
2017-10-21T11:34:56.087Z,3.30
2017-10-21T11:37:25.977Z,3.90
2017-10-21T11:39:55.866Z,3.43
2017-10-21T11:42:25.812Z,5.57
2017-10-21T11:44:55.703Z,4.03
2017-10-21T11:47:25.624Z,4.23
2017-10-21T11:49:55.574Z,3.57
2017-10-21T11:52:25.526Z,3.30
2017-10-21T11:54:55.437Z,3.53
2017-10-21T11:57:25.343Z,4.40
2017-10-21T11:59:55.256Z,3.57
2017-10-21T12:02:25.220Z,2.60
2017-10-21T12:04:55.083Z,3.43
2017-10-21T12:07:25.108Z,3.20
2017-10-21T12:09:55.017Z,3.20
2017-10-21T12:12:24.887Z,3.90
2017-10-21T12:14:55.717Z,3.80
2017-10-21T12:17:25.587Z,3.03
2017-10-21T12:19:55.470Z,3.17
2017-10-21T12:22:25.338Z,3.50
2017-10-21T12:24:55.240Z,4.47
2017-10-21T12:27:25.118Z,3.40
2017-10-21T12:29:55.048Z,3.90
2017-10-21T12:32:24.959Z,3.57
2017-10-21T12:34:54.940Z,3.40
2017-10-21T12:37:24.839Z,3.80
2017-10-21T12:39:54.793Z,3.83
2017-10-21T12:42:24.667Z,5.33
2017-10-21T12:44:54.545Z,3.70
2017-10-21T12:47:24.493Z,4.07
2017-10-21T12:49:54.475Z,3.90
2017-10-21T12:52:24.438Z,3.27
2017-10-21T12:54:54.316Z,3.13
2017-10-21T12:57:24.261Z,3.50
2017-10-21T12:59:54.136Z,3.43
2017-10-21T13:02:24.047Z,4.10
2017-10-21T13:04:53.953Z,3.83
2017-10-21T13:07:23.805Z,3.67
2017-10-21T13:09:53.701Z,4.50
2017-10-21T13:12:23.569Z,4.33
2017-10-21T13:14:53.622Z,4.17
2017-10-21T13:17:23.537Z,3.90
2017-10-21T13:19:53.538Z,3.77
2017-10-21T13:22:23.416Z,3.83
2017-10-21T13:24:53.357Z,3.50
2017-10-21T13:27:23.301Z,3.30
2017-10-21T13:29:54.088Z,3.17
2017-10-21T13:32:23.968Z,3.17
2017-10-21T13:34:53.901Z,3.30
2017-10-21T13:37:23.778Z,4.30
2017-10-21T13:39:53.785Z,4.07
2017-10-21T13:42:23.731Z,4.13
2017-10-21T13:44:53.647Z,3.73
2017-10-21T13:47:23.514Z,3.50
2017-10-21T13:49:53.577Z,3.53
2017-10-21T13:52:23.592Z,3.13
2017-10-21T13:54:53.492Z,2.93
2017-10-21T13:57:23.358Z,3.80
2017-10-21T13:59:53.293Z,3.37
2017-10-21T14:02:23.183Z,3.80
2017-10-21T14:04:53.085Z,3.90
2017-10-21T14:07:22.938Z,2.93
2017-10-21T14:09:52.825Z,3.20
2017-10-21T14:12:22.730Z,5.30
2017-10-21T14:14:52.603Z,3.80
2017-10-21T14:17:22.511Z,3.90
2017-10-21T14:19:52.375Z,2.50
2017-10-21T14:22:22.267Z,3.80
2017-10-21T14:24:52.177Z,3.00
2017-10-21T14:27:22.128Z,4.63
2017-10-21T14:29:52.016Z,5.27
2017-10-21T14:32:21.873Z,3.53
2017-10-21T14:34:51.755Z,2.80
2017-10-21T14:37:21.614Z,3.27
2017-10-21T14:39:51.636Z,3.00
2017-10-21T14:42:21.514Z,4.03
2017-10-21T14:44:51.401Z,2.90
2017-10-21T14:47:21.262Z,3.63
2017-10-21T14:49:51.278Z,3.93
2017-10-21T14:52:21.145Z,3.00
2017-10-21T14:54:51.036Z,3.20
2017-10-21T14:57:20.890Z,3.13
2017-10-21T14:59:50.762Z,3.30
2017-10-21T15:02:20.669Z,4.10
2017-10-21T15:04:50.530Z,3.57
2017-10-21T15:07:20.429Z,4.30
2017-10-21T15:09:50.292Z,2.67
2017-10-21T15:12:20.210Z,3.93
2017-10-21T15:14:50.084Z,4.07
2017-10-21T15:17:20.071Z,3.30
2017-10-21T15:19:49.927Z,3.53
2017-10-21T15:22:19.795Z,3.30
2017-10-21T15:24:49.724Z,4.30
2017-10-21T15:27:19.589Z,3.80
2017-10-21T15:29:49.502Z,3.90
2017-10-21T15:32:19.383Z,4.33
2017-10-21T15:34:49.233Z,4.43
2017-10-21T15:37:19.081Z,4.17
2017-10-21T15:39:49.517Z,5.43
2017-10-21T15:42:19.384Z,4.70
2017-10-21T15:44:49.287Z,5.43
2017-10-21T15:47:19.158Z,5.00
2017-10-21T15:49:49.025Z,4.60
2017-10-21T15:52:18.987Z,4.60
2017-10-21T15:54:48.868Z,7.67
2017-10-21T15:57:18.771Z,6.63
2017-10-21T15:59:48.679Z,6.30
2017-10-21T16:02:18.598Z,5.50
2017-10-21T16:04:48.464Z,4.80
2017-10-21T16:07:18.350Z,4.43
2017-10-21T16:09:48.239Z,5.23
2017-10-21T16:12:18.125Z,5.37
2017-10-21T16:14:47.990Z,4.80
2017-10-21T16:17:17.950Z,4.73
2017-10-21T16:19:47.848Z,5.70
2017-10-21T16:22:17.792Z,5.43
2017-10-21T16:24:47.700Z,6.47
2017-10-21T16:27:17.617Z,5.40
2017-10-21T16:29:47.702Z,6.80
2017-10-21T16:32:17.626Z,5.80
2017-10-21T16:34:47.522Z,5.60
2017-10-21T16:37:17.757Z,5.93
2017-10-21T16:39:47.746Z,6.60
2017-10-21T16:42:17.612Z,5.50
2017-10-21T16:44:47.561Z,6.63
2017-10-21T16:47:17.431Z,6.17
2017-10-21T16:49:47.318Z,5.80
2017-10-21T16:52:17.204Z,5.50
2017-10-21T16:54:47.089Z,6.23
2017-10-21T16:57:16.970Z,5.90
2017-10-21T16:59:46.840Z,6.27
2017-10-21T17:02:16.738Z,6.13
2017-10-21T17:04:46.566Z,7.20
2017-10-21T17:07:16.577Z,6.40
2017-10-21T17:09:46.450Z,7.33
2017-10-21T17:12:16.335Z,7.20
2017-10-21T17:14:46.248Z,7.37
2017-10-21T17:17:16.142Z,7.60
2017-10-21T17:19:46.000Z,7.43
2017-10-21T17:22:15.857Z,8.23
2017-10-21T17:24:45.766Z,8.40
2017-10-21T17:27:15.717Z,7.87
2017-10-21T17:29:45.633Z,9.53
2017-10-21T17:32:15.490Z,8.63
2017-10-21T17:34:45.371Z,9.37
2017-10-21T17:37:15.258Z,8.83
2017-10-21T17:39:45.189Z,9.77
2017-10-21T17:42:15.106Z,10.80
2017-10-21T17:44:45.006Z,9.90
2017-10-21T17:47:14.902Z,10.90
2017-10-21T17:49:44.810Z,11.87
2017-10-21T17:52:14.753Z,11.93
2017-10-21T17:54:44.647Z,10.57
2017-10-21T17:57:14.601Z,10.30
2017-10-21T17:59:44.487Z,10.13
2017-10-21T18:02:14.366Z,11.63
2017-10-21T18:04:44.267Z,13.70
2017-10-21T18:07:14.153Z,11.03
2017-10-21T18:09:44.031Z,11.50
2017-10-21T18:12:14.183Z,11.30
2017-10-21T18:14:44.111Z,11.40
2017-10-21T18:17:14.005Z,11.50
2017-10-21T18:19:44.928Z,12.47
2017-10-21T18:22:14.815Z,11.27
2017-10-21T18:24:44.922Z,11.97
2017-10-21T18:27:14.838Z,12.33
2017-10-21T18:29:44.777Z,13.07
2017-10-21T18:32:14.645Z,13.13
2017-10-21T18:34:44.634Z,14.17
2017-10-21T18:37:14.597Z,14.43
2017-10-21T18:39:44.526Z,12.43
2017-10-21T18:42:14.398Z,12.33
2017-10-21T18:44:44.518Z,13.53
2017-10-21T18:47:14.534Z,14.10
2017-10-21T18:49:44.529Z,13.77
2017-10-21T18:52:14.376Z,14.10
2017-10-21T18:54:44.294Z,13.90
2017-10-21T18:57:14.176Z,15.33
2017-10-21T18:59:44.080Z,15.03
2017-10-21T19:02:13.906Z,16.00
2017-10-21T19:04:43.787Z,15.73
2017-10-21T19:07:13.770Z,14.87
2017-10-21T19:09:43.652Z,17.03
2017-10-21T19:12:13.580Z,16.77
2017-10-21T19:14:43.470Z,17.93
2017-10-21T19:17:13.366Z,17.70
2017-10-21T19:19:43.282Z,17.50
2017-10-21T19:22:13.254Z,18.73
2017-10-21T19:24:43.154Z,20.37
2017-10-21T19:27:13.073Z,20.37
2017-10-21T19:29:43.357Z,19.77
2017-10-21T19:32:13.338Z,18.80
2017-10-21T19:34:43.228Z,19.87
2017-10-21T19:37:13.095Z,20.03
2017-10-21T19:39:43.275Z,20.77
2017-10-21T19:42:13.741Z,19.67
2017-10-21T19:44:43.636Z,20.20
2017-10-21T19:47:13.569Z,19.90
2017-10-21T19:49:43.452Z,20.57
2017-10-21T19:52:13.400Z,19.30
2017-10-21T19:54:43.295Z,21.63
2017-10-21T19:57:13.318Z,20.33
2017-10-21T19:59:43.224Z,20.67
2017-10-21T20:02:13.135Z,21.20
2017-10-21T20:04:43.082Z,20.93
2017-10-21T20:07:12.984Z,22.00
2017-10-21T20:09:42.947Z,19.50
2017-10-21T20:12:12.930Z,20.80
2017-10-21T20:14:42.912Z,20.53
2017-10-21T20:17:12.810Z,21.03
2017-10-21T20:19:42.759Z,21.23
2017-10-21T20:22:12.688Z,21.53
2017-10-21T20:24:42.635Z,21.90
2017-10-21T20:27:12.619Z,22.93
2017-10-21T20:29:42.520Z,20.40
2017-10-21T20:32:12.416Z,23.40
2017-10-21T20:34:42.383Z,23.07
2017-10-21T20:37:12.276Z,26.60
2017-10-21T20:39:42.165Z,21.37
2017-10-21T20:42:12.292Z,22.77
2017-10-21T20:44:42.622Z,22.37
2017-10-21T20:47:12.534Z,21.30
2017-10-21T20:49:42.446Z,21.27
2017-10-21T20:52:12.332Z,22.00
2017-10-21T20:54:42.234Z,18.83
2017-10-21T20:57:12.161Z,19.23
2017-10-21T20:59:42.346Z,21.10
2017-10-21T21:02:12.242Z,21.40
2017-10-21T21:04:42.136Z,21.70
2017-10-21T21:07:12.057Z,19.50
2017-10-21T21:09:42.010Z,20.50
2017-10-21T21:12:11.898Z,19.40
2017-10-21T21:14:41.819Z,19.47
2017-10-21T21:17:11.827Z,16.90
2017-10-21T21:19:41.798Z,18.87
2017-10-21T21:22:11.747Z,16.90
2017-10-21T21:24:41.614Z,17.67
2017-10-21T21:27:11.585Z,18.07
2017-10-21T21:29:41.504Z,17.93
2017-10-21T21:32:11.469Z,19.43
2017-10-21T21:34:41.411Z,18.00
2017-10-21T21:37:11.341Z,18.00
2017-10-21T21:39:41.242Z,19.40
2017-10-21T21:42:11.151Z,18.53
2017-10-21T21:44:41.112Z,17.20
2017-10-21T21:47:11.039Z,18.63
2017-10-21T21:49:40.927Z,16.50
2017-10-21T21:52:10.884Z,15.67
2017-10-21T21:54:40.877Z,14.83
2017-10-21T21:57:10.770Z,16.90
2017-10-21T21:59:40.804Z,16.37
2017-10-21T22:02:10.643Z,16.80
2017-10-21T22:04:40.521Z,15.40
2017-10-21T22:07:10.475Z,14.03
2017-10-21T22:09:40.401Z,15.60
2017-10-21T22:12:10.254Z,13.70
2017-10-21T22:14:40.166Z,13.27
2017-10-21T22:17:10.035Z,14.93
2017-10-21T22:19:39.937Z,14.87
2017-10-21T22:22:09.827Z,15.87
2017-10-21T22:24:39.677Z,14.70
2017-10-21T22:27:09.585Z,14.23
2017-10-21T22:29:39.475Z,14.80
2017-10-21T22:32:09.401Z,14.33
2017-10-21T22:34:39.279Z,15.33
2017-10-21T22:37:09.202Z,15.67
2017-10-21T22:39:39.180Z,15.60
2017-10-21T22:42:09.098Z,15.20
2017-10-21T22:44:39.002Z,17.53
2017-10-21T22:47:08.906Z,17.27
2017-10-21T22:49:38.874Z,15.30
2017-10-21T22:52:08.768Z,16.30
2017-10-21T22:54:38.694Z,16.13
2017-10-21T22:57:08.551Z,16.77
2017-10-21T22:59:38.473Z,16.70
2017-10-21T23:02:08.340Z,17.40
2017-10-21T23:04:38.252Z,14.60
2017-10-21T23:07:08.132Z,16.17
2017-10-21T23:09:38.014Z,15.90
2017-10-21T23:12:07.939Z,17.27
2017-10-21T23:24:22.823Z,15.80
2017-10-21T23:26:52.704Z,17.23
2017-10-21T23:29:22.611Z,18.57
2017-10-21T23:31:52.471Z,17.50
2017-10-21T23:34:23.262Z,19.47
2017-10-21T23:36:53.143Z,19.47
2017-10-21T23:39:23.040Z,21.30
2017-10-21T23:41:52.901Z,19.20
2017-10-21T23:44:22.784Z,20.07
2017-10-21T23:46:52.658Z,16.87
2017-10-21T23:49:22.582Z,20.67
2017-10-21T23:51:52.457Z,20.43
